• Join FlightAware (Why Join?)
  • Login
  • US Flag 
04:00AM EST


 

Airport Tracker/Info


-or-


 

Live Flight TrackerFlight Track Log ✈ UAL1422 ✈ 05-May-2012 ✈ KTPA - KORD

Flight Track Log - Related Links

Times and Time Zones

All times are in EDT time to prevent confusion due to time zone crossing. See the UAL1422 flight status page for this flight to view local times or setup timezone preferences in your user account.

Time Position Orientation Groundspeed Altitude Reporting Facility
EDT Latitude Longitude Course Direction KTS MPH feet Rate Location/Type
11:22AM 27.9667 -82.5500 288° West 161 185 400  Level Tampa TRACON
11:26AM 28.0036 -82.6764 347° North 237 273 10,800 2,520 Climbing Jacksonville Center
11:27AM 28.1019 -82.7019 346° North 296 341 13,500 2,760 Climbing Jacksonville Center
11:28AM 28.2019 -82.7300 347° North 339 390 16,400 2,700 Climbing Jacksonville Center
11:29AM 28.3064 -82.7581 347° North 364 419 19,000 2,460 Climbing Jacksonville Center
11:30AM 28.4169 -82.7864 350° North 385 443 21,400 2,340 Climbing Jacksonville Center
11:31AM 28.5275 -82.8075 344° North 397 457 23,700 2,100 Climbing Jacksonville Center
11:32AM 28.6383 -82.8428 347° North 402 463 25,700 1,740 Climbing Jacksonville Center
11:33AM 28.7383 -82.8689 344° North 402 463 27,200 1,560 Climbing Jacksonville Center
11:34AM 28.8533 -82.9069 346° North 416 479 28,800 1,380 Climbing Jacksonville Center
11:35AM 28.9742 -82.9425 345° North 430 495 30,000 1,260 Climbing Jacksonville Center
11:36AM 29.0975 -82.9806 345° North 441 507 31,400 900 Climbing Jacksonville Center
11:37AM 29.2183 -83.0164 344° North 451 519 31,900 240 Climbing Jacksonville Center
11:38AM 29.3417 -83.0569 346° North 451 519 31,900  Level Jacksonville Center
11:39AM 29.4625 -83.0928 345° North 456 525 32,000  Climbing Jacksonville Center
11:40AM 29.5878 -83.1314 344° North 456 525 32,000  Level Jacksonville Center
11:41AM 29.7067 -83.1700 345° North 456 525 32,000  Level Jacksonville Center
11:42AM 29.8297 -83.2086 345° North 456 525 32,000  Level Jacksonville Center
11:43AM 29.9508 -83.2450 345° North 449 517 32,000 480 Level Jacksonville Center
11:44AM 30.0883 -83.2886 344° North 458 527 33,000 1,200 Climbing Jacksonville Center
11:45AM 30.2094 -83.3278 346° North 458 527 34,500 1,320 Climbing Jacksonville Center
11:46AM 30.3344 -83.3644 345° North 453 521 35,700 1,140 Climbing Jacksonville Center
11:47AM 30.4556 -83.4033 344° North 453 521 36,800 1,140 Climbing Jacksonville Center
11:48AM 30.5744 -83.4428 346° North 453 521 38,000 600 Climbing Jacksonville Center
11:49AM 30.6975 -83.4797 344° North 453 521 38,000  Level Jacksonville Center
11:50AM 30.8183 -83.5192 346° North 453 521 38,000  Level Jacksonville Center
11:51AM 30.9350 -83.5539 345° North 445 512 38,000  Level Jacksonville Center
11:52AM 31.0539 -83.5908 344° North 445 512 38,000  Level Jacksonville Center
11:53AM 31.1769 -83.6308 345° North 445 512 38,000  Level Jacksonville Center
11:54AM 31.2956 -83.6681 344° North 445 512 38,000  Level Jacksonville Center
11:56AM 31.5919 -83.7683 345° North 432 497 38,000  Level Atlanta Center
11:57AM 31.7172 -83.8069 345° North 442 509 38,000  Level Atlanta Center
11:58AM 31.8403 -83.8458 344° North 454 522 38,000  Level Atlanta Center
11:59AM 31.9572 -83.8847 345° North 448 516 38,000  Level Atlanta Center
12:00PM 32.0783 -83.9236 345° North 448 516 38,000  Level Atlanta Center
12:01PM 32.1828 -83.9578 345° North 443 510 38,000  Level Atlanta Center
12:02PM 32.3039 -83.9969 345° North 438 504 38,000  Level Atlanta Center
12:03PM 32.4228 -84.0339 344° North 438 504 38,000  Level Atlanta Center
12:04PM 32.5461 -84.0758 345° North 438 504 38,000  Level Atlanta Center
12:05PM 32.6669 -84.1153 345° North 438 504 38,000  Level Atlanta Center
12:06PM 32.7881 -84.1550 343° North 443 510 38,000  Level Atlanta Center
12:07PM 32.9092 -84.1997 346° North 443 510 38,000  Level Atlanta Center
12:08PM 33.0428 -84.2394 344° North 448 516 38,000  Level Atlanta Center
12:09PM 33.1636 -84.2819 345° North 448 516 38,000  Level Atlanta Center
12:10PM 33.2722 -84.3172 345° North 448 516 38,000  Level Atlanta Center
12:11PM 33.3972 -84.3572 343° North 453 521 38,000  Level Atlanta Center
12:12PM 33.5161 -84.4000 345° North 447 514 38,000  Level Atlanta Center
12:13PM 33.6517 -84.4431 349° North 447 514 38,000  Level Atlanta Center
12:14PM 33.7789 -84.4736 348° North 452 520 38,000  Level Atlanta Center
12:15PM 33.9039 -84.5044 349° North 457 526 38,000  Level Atlanta Center
12:16PM 34.0167 -84.5300 348° North 452 520 38,000  Level Atlanta Center
12:17PM 34.1606 -84.5661 349° North 466 536 38,000  Level Atlanta Center
12:18PM 34.2711 -84.5917 355° North 466 536 38,000  Level Atlanta Center
12:19PM 34.3983 -84.6053 357° North 460 529 38,000  Level Atlanta Center
12:20PM 34.5275 -84.6136 356° North 460 529 38,000  Level Atlanta Center
12:21PM 34.6547 -84.6247 355° North 460 529 38,000  Level Atlanta Center
12:22PM 34.7758 -84.6381 356° North 448 516 38,000  Level Atlanta Center
12:23PM 34.9072 -84.6492 356° North 448 516 38,000  Level Atlanta Center
12:24PM 35.0367 -84.6603 356° North 453 521 38,000  Level Atlanta Center
12:25PM 35.1658 -84.6714 356° North 459 528 38,000  Level Atlanta Center
12:26PM 35.2953 -84.6825 356° North 459 528 38,000  Level Atlanta Center
12:27PM 35.4244 -84.6936 356° North 459 528 38,000  Level Atlanta Center
12:28PM 35.5558 -84.7050 357° North 465 535 38,000  Level Atlanta Center
12:30PM 35.8094 -84.7219 356° North 475 547 38,000  Level Indianapolis Center
12:31PM 35.9489 -84.7344 355° North 480 552 38,000  Level Indianapolis Center
12:32PM 36.0803 -84.7492 355° North 480 552 38,000  Level Indianapolis Center
12:33PM 36.2136 -84.7642 356° North 475 547 38,000  Level Indianapolis Center
12:34PM 36.3428 -84.7764 North 475 547 38,000  Level Indianapolis Center
12:35PM 36.4764 -84.7683 14° North 475 547 38,000  Level Indianapolis Center
12:36PM 36.6061 -84.7289 13° North 475 547 38,000  Level Indianapolis Center
12:37PM 36.7336 -84.6919 14° North 475 547 38,000  Level Indianapolis Center
12:38PM 36.8633 -84.6525 13° North 470 541 38,000  Level Indianapolis Center
12:39PM 36.9931 -84.6153 North 470 541 38,000  Level Indianapolis Center
12:40PM 37.1372 -84.5861 346° North 475 547 38,000  Level Indianapolis Center
12:41PM 37.2642 -84.6244 346° North 455 524 38,000  Level Indianapolis Center
12:42PM 37.3911 -84.6653 346° North 466 536 38,000  Level Indianapolis Center
12:43PM 37.5158 -84.7039 346° North 471 542 38,000  Level Indianapolis Center
12:44PM 37.6406 -84.7425 345° North 466 536 38,000  Level Indianapolis Center
12:45PM 37.7653 -84.7839 347° North 466 536 38,000  Level Indianapolis Center
12:46PM 37.8922 -84.8203 346° North 466 536 38,000  Level Indianapolis Center
12:47PM 38.0128 -84.8592 346° North 453 521 38,000  Level Indianapolis Center
12:48PM 38.1417 -84.9011 346° North 462 532 38,000  Level Indianapolis Center
12:49PM 38.2642 -84.9403 346° North 462 532 38,000 -480 Level Indianapolis Center
12:50PM 38.3889 -84.9797 346° North 462 532 37,100 -960 Descending Indianapolis Center
12:51PM 38.5178 -85.0194 345° North 462 532 36,100 -600 Descending Indianapolis Center
12:52PM 38.6278 -85.0564 346° North 462 532 36,000 -60 Descending Indianapolis Center
12:53PM 38.7586 -85.0989 346° North 451 519 36,000  Level Indianapolis Center
12:54PM 38.8853 -85.1389 345° North 452 520 36,000 -480 Level Indianapolis Center
12:55PM 39.0078 -85.1817 346° North 452 520 35,100 -960 Descending Indianapolis Center
12:56PM 39.1281 -85.2194 346° North 452 520 34,100 -900 Descending Indianapolis Center
12:57PM 39.2361 -85.2539 345° North 446 513 33,300 -1,080 Descending Indianapolis Center
12:58PM 39.3564 -85.2944 346° North 446 513 32,000 -1,620 Descending Indianapolis Center
12:59PM 39.4728 -85.3322 345° North 446 513 30,100 -1,260 Descending Indianapolis Center
01:00PM 39.5972 -85.3758 346° North 457 526 29,500 -780 Descending Indianapolis Center
01:01PM 39.7217 -85.4169 346° North 457 526 28,600 -960 Descending Indianapolis Center
01:02PM 39.8439 -85.4578 345° North 452 520 27,600 -780 Descending Indianapolis Center
01:05PM 40.1317 -85.5589 346° North 465 535 26,000 -480 Descending Chicago Center
01:06PM 40.2497 -85.5983 342° North 446 513 26,000  Level Chicago Center
01:07PM 40.3619 -85.6467 342° North 434 499 26,000  Level Chicago Center
01:08PM 40.4633 -85.6900 344° North 399 459 26,000 -180 Level Chicago Center
01:09PM 40.5564 -85.7261 342° North 357 411 25,700 -660 Descending Chicago Center
01:10PM 40.6578 -85.7697 341° North 347 399 24,700 -1,020 Descending Chicago Center
01:11PM 40.7444 -85.8089 339° North 341 392 23,700 -900 Descending Chicago Center
01:12PM 40.8272 -85.8511 305° West 330 380 23,000 -360 Descending Chicago Center
01:13PM 40.8803 -85.9497 306° West 321 369 23,000  Level Chicago Center
01:14PM 40.9331 -86.0461 303° West 335 386 23,000  Level Chicago Center
01:15PM 40.9839 -86.1481 307° West 330 380 23,000 -420 Level Chicago Center
01:16PM 41.0367 -86.2419 304° West 325 374 22,200 -960 Descending Chicago Center
01:17PM 41.0828 -86.3333 309° West 313 360 21,100 -1,080 Descending Chicago Center
01:18PM 41.1286 -86.4083 303° West 292 336 20,100 -840 Descending Chicago Center
01:19PM 41.1681 -86.4894 338° Northwest 278 320 19,500 -840 Descending Chicago Center
01:20PM 41.2336 -86.5253 359° North 274 315 18,500 -780 Descending Chicago Center
01:21PM 41.3108 -86.5272 357° North 276 318 18,000 -300 Descending Chicago Center
01:22PM 41.3819 -86.5325 291° West 265 305 18,000 -420 Level Chicago Center
01:23PM 41.4092 -86.6256 273° West 296 341 17,200 -480 Descending Chicago Center
01:24PM 41.4136 -86.7278 275° West 302 348 17,100 -480 Descending Chicago Center
01:25PM 41.4203 -86.8383 273° West 296 341 16,300 -600 Descending Chicago Center
01:26PM 41.4247 -86.9517 276° West 301 346 16,000 -600 Descending Chicago Center
01:27PM 41.4333 -87.0650 270° West 307 353 15,100 -1,020 Descending Chicago Center
01:27PM 41.4333 -87.1333 298° West 296 341 14,300 -1,500 Descending Chicago TRACON
01:28PM 41.4667 -87.2167 315° West 284 327 12,700 -1,320 Descending Chicago TRACON
01:29PM 41.5167 -87.2833 331° Northwest 278 320 12,000 -1,080 Descending Chicago TRACON
01:30PM 41.5833 -87.3333 343° North 279 321 10,700 -1,500 Descending Chicago TRACON
01:31PM 41.6667 -87.3667 341° North 277 319 9,100 -1,560 Descending Chicago TRACON
01:32PM 41.6914 -87.3783 358° North 279 321 8,400 -1,380 Descending Chicago Center
01:33PM 41.7686 -87.3817 358° North 267 307 7,100 -1,440 Descending Chicago Center
01:34PM 41.8439 -87.3847 358° North 267 307 5,600 -1,080 Descending Chicago Center
01:35PM 41.9189 -87.3881 315° West 273 314 5,000 -300 Descending Chicago Center
01:36PM 41.9617 -87.4456 274° West 232 267 5,000  Level Chicago Center
01:37PM 41.9667 -87.5500 270° West 228 262 5,000 -420 Level Chicago TRACON
01:38PM 41.9667 -87.6333 270° West 207 238 4,200 -900 Descending Chicago TRACON
01:39PM 41.9667 -87.7000 270° West 188 216 3,300 -900 Descending Chicago TRACON